sensor_id;sensor_type;location;lat;lon;timestamp;P1;durP1;ratioP1;P2;durP2;ratioP2
45522;SDS011;31254;51.680;5.394;2024-03-07T00:02:21;38.97;;;24.90;;
45522;SDS011;31254;51.680;5.394;2024-03-07T00:04:50;35.58;;;23.85;;
45522;SDS011;31254;51.680;5.394;2024-03-07T00:07:17;38.03;;;24.20;;
45522;SDS011;31254;51.680;5.394;2024-03-07T00:09:44;40.28;;;25.92;;
45522;SDS011;31254;51.680;5.394;2024-03-07T00:12:12;39.67;;;24.63;;
45522;SDS011;31254;51.680;5.394;2024-03-07T00:14:39;39.08;;;24.38;;
45522;SDS011;31254;51.680;5.394;2024-03-07T00:17:06;36.22;;;24.40;;
45522;SDS011;31254;51.680;5.394;2024-03-07T00:19:33;37.88;;;24.10;;
45522;SDS011;31254;51.680;5.394;2024-03-07T00:21:59;40.03;;;25.67;;
45522;SDS011;31254;51.680;5.394;2024-03-07T00:24:26;38.70;;;24.98;;
45522;SDS011;31254;51.680;5.394;2024-03-07T00:26:55;36.95;;;22.85;;
45522;SDS011;31254;51.680;5.394;2024-03-07T00:29:23;41.08;;;24.55;;
45522;SDS011;31254;51.680;5.394;2024-03-07T00:31:50;36.22;;;24.60;;
45522;SDS011;31254;51.680;5.394;2024-03-07T00:34:17;36.83;;;24.80;;
45522;SDS011;31254;51.680;5.394;2024-03-07T00:36:51;35.58;;;23.38;;
45522;SDS011;31254;51.680;5.394;2024-03-07T00:39:18;37.13;;;23.38;;
45522;SDS011;31254;51.680;5.394;2024-03-07T00:41:46;36.47;;;24.05;;
45522;SDS011;31254;51.680;5.394;2024-03-07T00:44:13;37.03;;;24.45;;
45522;SDS011;31254;51.680;5.394;2024-03-07T00:46:39;38.83;;;24.35;;
45522;SDS011;31254;51.680;5.394;2024-03-07T00:49:06;39.42;;;24.83;;
45522;SDS011;31254;51.680;5.394;2024-03-07T00:51:32;41.85;;;25.02;;
45522;SDS011;31254;51.680;5.394;2024-03-07T00:53:59;37.40;;;24.10;;
45522;SDS011;31254;51.680;5.394;2024-03-07T00:56:26;37.60;;;23.90;;
45522;SDS011;31254;51.680;5.394;2024-03-07T00:58:52;37.75;;;24.58;;
45522;SDS011;31254;51.680;5.394;2024-03-07T01:01:19;36.70;;;23.30;;
45522;SDS011;31254;51.680;5.394;2024-03-07T01:03:46;36.28;;;23.88;;
45522;SDS011;31254;51.680;5.394;2024-03-07T01:06:12;33.95;;;23.25;;
45522;SDS011;31254;51.680;5.394;2024-03-07T01:08:39;38.05;;;23.90;;
45522;SDS011;31254;51.680;5.394;2024-03-07T01:11:06;40.78;;;24.92;;
45522;SDS011;31254;51.680;5.394;2024-03-07T01:13:36;37.28;;;24.25;;
45522;SDS011;31254;51.680;5.394;2024-03-07T01:16:03;36.33;;;23.73;;
45522;SDS011;31254;51.680;5.394;2024-03-07T01:18:30;36.50;;;23.92;;
45522;SDS011;31254;51.680;5.394;2024-03-07T01:20:59;37.80;;;23.83;;
45522;SDS011;31254;51.680;5.394;2024-03-07T01:23:30;38.75;;;24.30;;
45522;SDS011;31254;51.680;5.394;2024-03-07T01:25:58;36.90;;;24.08;;
45522;SDS011;31254;51.680;5.394;2024-03-07T01:28:25;37.65;;;24.00;;
45522;SDS011;31254;51.680;5.394;2024-03-07T01:30:56;36.78;;;24.40;;
45522;SDS011;31254;51.680;5.394;2024-03-07T01:33:24;38.28;;;24.90;;
45522;SDS011;31254;51.680;5.394;2024-03-07T01:35:51;35.83;;;24.08;;
45522;SDS011;31254;51.680;5.394;2024-03-07T01:38:18;39.03;;;24.65;;
45522;SDS011;31254;51.680;5.394;2024-03-07T01:40:45;40.55;;;25.08;;
45522;SDS011;31254;51.680;5.394;2024-03-07T01:43:12;40.38;;;25.15;;
45522;SDS011;31254;51.680;5.394;2024-03-07T01:45:38;37.75;;;24.25;;
45522;SDS011;31254;51.680;5.394;2024-03-07T01:48:05;42.40;;;25.70;;
45522;SDS011;31254;51.680;5.394;2024-03-07T01:50:35;38.20;;;24.05;;
45522;SDS011;31254;51.680;5.394;2024-03-07T01:53:05;37.20;;;24.65;;
45522;SDS011;31254;51.680;5.394;2024-03-07T01:55:33;44.53;;;25.77;;
45522;SDS011;31254;51.680;5.394;2024-03-07T01:58:00;39.08;;;23.92;;
45522;SDS011;31254;51.680;5.394;2024-03-07T02:00:28;37.00;;;24.33;;
45522;SDS011;31254;51.680;5.394;2024-03-07T02:02:55;39.13;;;24.08;;
45522;SDS011;31254;51.680;5.394;2024-03-07T02:05:22;40.00;;;25.02;;
45522;SDS011;31254;51.680;5.394;2024-03-07T02:07:50;39.58;;;24.33;;
45522;SDS011;31254;51.680;5.394;2024-03-07T02:10:17;37.95;;;24.95;;
45522;SDS011;31254;51.680;5.394;2024-03-07T02:12:44;38.25;;;23.98;;
45522;SDS011;31254;51.680;5.394;2024-03-07T02:15:11;38.92;;;25.25;;
45522;SDS011;31254;51.680;5.394;2024-03-07T02:17:40;37.05;;;24.67;;
45522;SDS011;31254;51.680;5.394;2024-03-07T02:20:07;38.38;;;24.95;;
45522;SDS011;31254;51.680;5.394;2024-03-07T02:22:37;38.72;;;24.67;;
45522;SDS011;31254;51.680;5.394;2024-03-07T02:25:04;38.30;;;24.00;;
45522;SDS011;31254;51.680;5.394;2024-03-07T02:27:31;38.35;;;24.25;;
45522;SDS011;31254;51.680;5.394;2024-03-07T02:29:58;40.83;;;25.75;;
45522;SDS011;31254;51.680;5.394;2024-03-07T02:32:24;41.38;;;25.60;;
45522;SDS011;31254;51.680;5.394;2024-03-07T02:34:53;39.00;;;25.38;;
45522;SDS011;31254;51.680;5.394;2024-03-07T02:37:19;39.22;;;25.15;;
45522;SDS011;31254;51.680;5.394;2024-03-07T02:39:46;37.55;;;24.38;;
45522;SDS011;31254;51.680;5.394;2024-03-07T02:42:12;38.65;;;24.92;;
45522;SDS011;31254;51.680;5.394;2024-03-07T02:44:39;39.40;;;24.38;;
45522;SDS011;31254;51.680;5.394;2024-03-07T02:47:06;39.78;;;24.50;;
45522;SDS011;31254;51.680;5.394;2024-03-07T02:49:33;39.10;;;23.85;;
45522;SDS011;31254;51.680;5.394;2024-03-07T02:51:59;42.88;;;26.38;;
45522;SDS011;31254;51.680;5.394;2024-03-07T02:54:26;41.40;;;24.30;;
45522;SDS011;31254;51.680;5.394;2024-03-07T02:56:53;42.70;;;25.00;;
45522;SDS011;31254;51.680;5.394;2024-03-07T02:59:20;39.95;;;25.63;;
45522;SDS011;31254;51.680;5.394;2024-03-07T03:01:48;40.47;;;26.02;;
45522;SDS011;31254;51.680;5.394;2024-03-07T03:04:14;40.00;;;24.75;;
45522;SDS011;31254;51.680;5.394;2024-03-07T03:06:41;38.75;;;24.80;;
45522;SDS011;31254;51.680;5.394;2024-03-07T03:09:07;39.65;;;24.70;;
45522;SDS011;31254;51.680;5.394;2024-03-07T03:11:39;37.80;;;24.40;;
45522;SDS011;31254;51.680;5.394;2024-03-07T03:14:06;42.72;;;26.17;;
45522;SDS011;31254;51.680;5.394;2024-03-07T03:16:32;43.15;;;26.02;;
45522;SDS011;31254;51.680;5.394;2024-03-07T03:19:13;40.42;;;24.48;;
45522;SDS011;31254;51.680;5.394;2024-03-07T03:21:39;41.50;;;25.42;;
45522;SDS011;31254;51.680;5.394;2024-03-07T03:24:07;41.70;;;25.40;;
45522;SDS011;31254;51.680;5.394;2024-03-07T03:26:33;41.83;;;26.50;;
45522;SDS011;31254;51.680;5.394;2024-03-07T03:29:01;38.47;;;25.27;;
45522;SDS011;31254;51.680;5.394;2024-03-07T03:31:27;41.20;;;24.90;;
45522;SDS011;31254;51.680;5.394;2024-03-07T03:33:54;42.08;;;24.80;;
45522;SDS011;31254;51.680;5.394;2024-03-07T03:36:20;40.20;;;26.25;;
45522;SDS011;31254;51.680;5.394;2024-03-07T03:38:47;41.85;;;26.27;;
45522;SDS011;31254;51.680;5.394;2024-03-07T03:41:16;37.95;;;25.23;;
45522;SDS011;31254;51.680;5.394;2024-03-07T03:43:43;41.78;;;25.77;;
45522;SDS011;31254;51.680;5.394;2024-03-07T03:46:10;41.00;;;25.85;;
45522;SDS011;31254;51.680;5.394;2024-03-07T03:48:38;40.88;;;25.05;;
45522;SDS011;31254;51.680;5.394;2024-03-07T03:51:06;43.28;;;26.83;;
45522;SDS011;31254;51.680;5.394;2024-03-07T03:53:34;41.28;;;26.30;;
45522;SDS011;31254;51.680;5.394;2024-03-07T03:56:01;45.05;;;26.38;;
45522;SDS011;31254;51.680;5.394;2024-03-07T03:58:31;46.45;;;27.75;;
45522;SDS011;31254;51.680;5.394;2024-03-07T04:00:57;40.30;;;25.02;;
45522;SDS011;31254;51.680;5.394;2024-03-07T04:03:27;39.53;;;26.23;;
45522;SDS011;31254;51.680;5.394;2024-03-07T04:05:54;41.38;;;25.38;;
45522;SDS011;31254;51.680;5.394;2024-03-07T04:08:22;43.15;;;26.27;;
45522;SDS011;31254;51.680;5.394;2024-03-07T04:10:48;39.90;;;25.02;;
45522;SDS011;31254;51.680;5.394;2024-03-07T04:13:15;44.47;;;25.70;;
45522;SDS011;31254;51.680;5.394;2024-03-07T04:15:42;44.38;;;26.90;;
45522;SDS011;31254;51.680;5.394;2024-03-07T04:18:10;39.30;;;25.25;;
45522;SDS011;31254;51.680;5.394;2024-03-07T04:20:37;41.40;;;26.08;;
45522;SDS011;31254;51.680;5.394;2024-03-07T04:23:05;39.80;;;26.25;;
45522;SDS011;31254;51.680;5.394;2024-03-07T04:25:37;42.67;;;25.95;;
45522;SDS011;31254;51.680;5.394;2024-03-07T04:28:04;41.20;;;26.27;;
45522;SDS011;31254;51.680;5.394;2024-03-07T04:30:31;46.30;;;26.90;;
45522;SDS011;31254;51.680;5.394;2024-03-07T04:32:58;43.10;;;26.13;;
45522;SDS011;31254;51.680;5.394;2024-03-07T04:35:25;43.47;;;26.52;;
45522;SDS011;31254;51.680;5.394;2024-03-07T04:37:51;41.30;;;25.92;;
45522;SDS011;31254;51.680;5.394;2024-03-07T04:40:19;43.95;;;27.52;;
45522;SDS011;31254;51.680;5.394;2024-03-07T04:42:46;40.05;;;26.13;;
45522;SDS011;31254;51.680;5.394;2024-03-07T04:45:17;44.78;;;25.80;;
45522;SDS011;31254;51.680;5.394;2024-03-07T04:47:44;41.88;;;25.77;;
45522;SDS011;31254;51.680;5.394;2024-03-07T04:50:13;39.95;;;25.63;;
45522;SDS011;31254;51.680;5.394;2024-03-07T04:52:44;40.25;;;25.95;;
45522;SDS011;31254;51.680;5.394;2024-03-07T04:55:13;39.50;;;26.17;;
45522;SDS011;31254;51.680;5.394;2024-03-07T04:57:40;44.10;;;26.08;;
45522;SDS011;31254;51.680;5.394;2024-03-07T05:00:08;38.78;;;25.23;;
45522;SDS011;31254;51.680;5.394;2024-03-07T05:02:45;39.47;;;25.73;;
45522;SDS011;31254;51.680;5.394;2024-03-07T05:05:13;42.38;;;26.17;;
45522;SDS011;31254;51.680;5.394;2024-03-07T05:07:41;41.13;;;25.85;;
45522;SDS011;31254;51.680;5.394;2024-03-07T05:10:08;41.75;;;26.30;;
45522;SDS011;31254;51.680;5.394;2024-03-07T05:12:35;41.70;;;26.48;;
45522;SDS011;31254;51.680;5.394;2024-03-07T05:15:04;40.58;;;26.60;;
45522;SDS011;31254;51.680;5.394;2024-03-07T05:17:36;42.08;;;26.08;;
45522;SDS011;31254;51.680;5.394;2024-03-07T05:20:05;41.72;;;26.35;;
45522;SDS011;31254;51.680;5.394;2024-03-07T05:22:36;42.90;;;27.17;;
45522;SDS011;31254;51.680;5.394;2024-03-07T05:25:18;41.55;;;26.38;;
45522;SDS011;31254;51.680;5.394;2024-03-07T05:27:46;42.50;;;26.50;;
45522;SDS011;31254;51.680;5.394;2024-03-07T05:30:12;39.20;;;25.77;;
45522;SDS011;31254;51.680;5.394;2024-03-07T05:32:42;43.70;;;26.20;;
45522;SDS011;31254;51.680;5.394;2024-03-07T05:35:09;41.08;;;26.00;;
45522;SDS011;31254;51.680;5.394;2024-03-07T05:37:37;44.65;;;26.30;;
45522;SDS011;31254;51.680;5.394;2024-03-07T05:40:07;41.78;;;26.75;;
45522;SDS011;31254;51.680;5.394;2024-03-07T05:42:35;41.35;;;26.63;;
45522;SDS011;31254;51.680;5.394;2024-03-07T05:45:01;42.33;;;26.88;;
45522;SDS011;31254;51.680;5.394;2024-03-07T05:47:28;43.00;;;26.65;;
45522;SDS011;31254;51.680;5.394;2024-03-07T05:49:55;40.90;;;26.25;;
45522;SDS011;31254;51.680;5.394;2024-03-07T05:52:22;43.10;;;26.00;;
45522;SDS011;31254;51.680;5.394;2024-03-07T05:54:48;40.85;;;25.58;;
45522;SDS011;31254;51.680;5.394;2024-03-07T05:57:15;45.05;;;26.70;;
45522;SDS011;31254;51.680;5.394;2024-03-07T05:59:42;43.17;;;26.98;;
45522;SDS011;31254;51.680;5.394;2024-03-07T06:02:08;40.45;;;26.85;;
45522;SDS011;31254;51.680;5.394;2024-03-07T06:04:35;42.15;;;26.65;;
45522;SDS011;31254;51.680;5.394;2024-03-07T06:07:01;43.13;;;27.73;;
45522;SDS011;31254;51.680;5.394;2024-03-07T06:09:28;44.13;;;27.67;;
45522;SDS011;31254;51.680;5.394;2024-03-07T06:11:54;40.70;;;25.02;;
45522;SDS011;31254;51.680;5.394;2024-03-07T06:14:21;40.88;;;26.25;;
45522;SDS011;31254;51.680;5.394;2024-03-07T06:16:50;40.88;;;26.38;;
45522;SDS011;31254;51.680;5.394;2024-03-07T06:19:19;42.83;;;27.42;;
45522;SDS011;31254;51.680;5.394;2024-03-07T06:21:45;47.25;;;27.20;;
45522;SDS011;31254;51.680;5.394;2024-03-07T06:24:12;42.05;;;25.98;;
45522;SDS011;31254;51.680;5.394;2024-03-07T06:26:41;42.78;;;26.65;;
45522;SDS011;31254;51.680;5.394;2024-03-07T06:29:14;42.20;;;26.65;;
45522;SDS011;31254;51.680;5.394;2024-03-07T06:31:45;41.65;;;27.15;;
45522;SDS011;31254;51.680;5.394;2024-03-07T06:34:16;40.95;;;26.17;;
45522;SDS011;31254;51.680;5.394;2024-03-07T06:36:44;46.28;;;27.40;;
45522;SDS011;31254;51.680;5.394;2024-03-07T06:39:10;48.85;;;27.65;;
45522;SDS011;31254;51.680;5.394;2024-03-07T06:41:38;43.05;;;26.65;;
45522;SDS011;31254;51.680;5.394;2024-03-07T06:44:05;40.97;;;27.13;;
45522;SDS011;31254;51.680;5.394;2024-03-07T06:46:33;45.85;;;27.80;;
45522;SDS011;31254;51.680;5.394;2024-03-07T06:49:01;48.90;;;28.00;;
45522;SDS011;31254;51.680;5.394;2024-03-07T06:51:27;44.92;;;27.15;;
45522;SDS011;31254;51.680;5.394;2024-03-07T06:53:54;42.13;;;26.85;;
45522;SDS011;31254;51.680;5.394;2024-03-07T06:56:23;42.67;;;26.52;;
45522;SDS011;31254;51.680;5.394;2024-03-07T06:58:52;43.33;;;27.90;;
45522;SDS011;31254;51.680;5.394;2024-03-07T07:01:19;44.10;;;27.95;;
45522;SDS011;31254;51.680;5.394;2024-03-07T07:03:46;47.80;;;27.70;;
45522;SDS011;31254;51.680;5.394;2024-03-07T07:06:14;46.22;;;28.23;;
45522;SDS011;31254;51.680;5.394;2024-03-07T07:08:41;45.15;;;28.00;;
45522;SDS011;31254;51.680;5.394;2024-03-07T07:11:10;43.78;;;27.65;;
45522;SDS011;31254;51.680;5.394;2024-03-07T07:13:38;42.58;;;26.75;;
45522;SDS011;31254;51.680;5.394;2024-03-07T07:16:05;44.30;;;27.70;;
45522;SDS011;31254;51.680;5.394;2024-03-07T07:18:32;44.20;;;27.25;;
45522;SDS011;31254;51.680;5.394;2024-03-07T07:20:59;44.13;;;27.23;;
45522;SDS011;31254;51.680;5.394;2024-03-07T07:23:26;46.40;;;27.98;;
45522;SDS011;31254;51.680;5.394;2024-03-07T07:25:53;43.22;;;27.60;;
45522;SDS011;31254;51.680;5.394;2024-03-07T07:28:19;44.67;;;26.92;;
45522;SDS011;31254;51.680;5.394;2024-03-07T07:30:46;44.75;;;28.70;;
45522;SDS011;31254;51.680;5.394;2024-03-07T07:33:12;43.97;;;27.70;;
45522;SDS011;31254;51.680;5.394;2024-03-07T07:35:40;43.20;;;27.98;;
45522;SDS011;31254;51.680;5.394;2024-03-07T07:38:07;48.67;;;28.38;;
45522;SDS011;31254;51.680;5.394;2024-03-07T07:40:37;43.15;;;27.75;;
45522;SDS011;31254;51.680;5.394;2024-03-07T07:43:04;46.00;;;26.60;;
45522;SDS011;31254;51.680;5.394;2024-03-07T07:45:30;45.25;;;27.20;;
45522;SDS011;31254;51.680;5.394;2024-03-07T07:47:59;48.80;;;28.45;;
45522;SDS011;31254;51.680;5.394;2024-03-07T07:50:26;43.35;;;26.70;;
45522;SDS011;31254;51.680;5.394;2024-03-07T07:52:56;43.53;;;27.17;;
45522;SDS011;31254;51.680;5.394;2024-03-07T07:55:24;41.60;;;27.77;;
45522;SDS011;31254;51.680;5.394;2024-03-07T07:57:59;42.78;;;26.50;;
45522;SDS011;31254;51.680;5.394;2024-03-07T08:00:27;44.42;;;27.17;;
45522;SDS011;31254;51.680;5.394;2024-03-07T08:03:08;43.50;;;26.65;;
45522;SDS011;31254;51.680;5.394;2024-03-07T08:05:37;42.63;;;25.80;;
45522;SDS011;31254;51.680;5.394;2024-03-07T08:08:05;43.20;;;27.92;;
45522;SDS011;31254;51.680;5.394;2024-03-07T08:10:34;41.47;;;27.02;;
45522;SDS011;31254;51.680;5.394;2024-03-07T08:13:02;39.75;;;26.80;;
45522;SDS011;31254;51.680;5.394;2024-03-07T08:15:30;46.53;;;28.13;;
45522;SDS011;31254;51.680;5.394;2024-03-07T08:17:57;44.65;;;27.38;;
45522;SDS011;31254;51.680;5.394;2024-03-07T08:20:26;39.72;;;25.58;;
45522;SDS011;31254;51.680;5.394;2024-03-07T08:22:53;38.70;;;25.13;;
45522;SDS011;31254;51.680;5.394;2024-03-07T08:25:22;40.85;;;25.70;;
45522;SDS011;31254;51.680;5.394;2024-03-07T08:27:51;39.80;;;25.67;;
45522;SDS011;31254;51.680;5.394;2024-03-07T08:30:19;42.33;;;27.67;;
45522;SDS011;31254;51.680;5.394;2024-03-07T08:32:48;36.85;;;25.13;;
45522;SDS011;31254;51.680;5.394;2024-03-07T08:35:18;38.88;;;25.88;;
45522;SDS011;31254;51.680;5.394;2024-03-07T08:37:46;41.58;;;24.58;;
45522;SDS011;31254;51.680;5.394;2024-03-07T08:40:27;38.38;;;24.95;;
45522;SDS011;31254;51.680;5.394;2024-03-07T08:43:00;42.28;;;25.27;;
45522;SDS011;31254;51.680;5.394;2024-03-07T08:45:28;40.15;;;24.35;;
45522;SDS011;31254;51.680;5.394;2024-03-07T08:47:56;36.85;;;24.25;;
45522;SDS011;31254;51.680;5.394;2024-03-07T08:50:26;38.88;;;24.52;;
45522;SDS011;31254;51.680;5.394;2024-03-07T08:52:53;36.83;;;24.20;;
45522;SDS011;31254;51.680;5.394;2024-03-07T08:55:22;42.70;;;25.88;;
45522;SDS011;31254;51.680;5.394;2024-03-07T08:57:53;36.83;;;24.38;;
45522;SDS011;31254;51.680;5.394;2024-03-07T09:00:20;39.10;;;24.88;;
45522;SDS011;31254;51.680;5.394;2024-03-07T09:02:56;39.70;;;24.83;;
45522;SDS011;31254;51.680;5.394;2024-03-07T09:05:27;36.30;;;24.85;;
45522;SDS011;31254;51.680;5.394;2024-03-07T09:07:55;38.40;;;24.55;;
45522;SDS011;31254;51.680;5.394;2024-03-07T09:10:22;37.83;;;24.38;;
45522;SDS011;31254;51.680;5.394;2024-03-07T09:12:52;36.30;;;24.25;;
45522;SDS011;31254;51.680;5.394;2024-03-07T09:15:20;34.92;;;24.25;;
45522;SDS011;31254;51.680;5.394;2024-03-07T09:17:49;39.58;;;24.63;;
45522;SDS011;31254;51.680;5.394;2024-03-07T09:20:16;37.28;;;23.13;;
45522;SDS011;31254;51.680;5.394;2024-03-07T09:22:45;36.95;;;23.77;;
45522;SDS011;31254;51.680;5.394;2024-03-07T09:25:17;36.25;;;23.42;;
45522;SDS011;31254;51.680;5.394;2024-03-07T09:27:46;35.58;;;24.00;;
45522;SDS011;31254;51.680;5.394;2024-03-07T09:30:13;35.75;;;23.48;;
45522;SDS011;31254;51.680;5.394;2024-03-07T09:32:47;33.75;;;22.98;;
45522;SDS011;31254;51.680;5.394;2024-03-07T09:35:13;33.45;;;21.88;;
45522;SDS011;31254;51.680;5.394;2024-03-07T09:37:42;35.35;;;23.50;;
45522;SDS011;31254;51.680;5.394;2024-03-07T09:40:10;33.55;;;22.25;;
45522;SDS011;31254;51.680;5.394;2024-03-07T09:42:43;32.95;;;22.30;;
45522;SDS011;31254;51.680;5.394;2024-03-07T09:45:13;33.65;;;21.88;;
45522;SDS011;31254;51.680;5.394;2024-03-07T09:47:46;31.77;;;21.40;;
45522;SDS011;31254;51.680;5.394;2024-03-07T09:50:19;31.15;;;21.20;;
45522;SDS011;31254;51.680;5.394;2024-03-07T09:52:51;32.80;;;21.80;;
45522;SDS011;31254;51.680;5.394;2024-03-07T09:55:20;33.28;;;21.60;;
45522;SDS011;31254;51.680;5.394;2024-03-07T09:57:52;32.60;;;20.48;;
45522;SDS011;31254;51.680;5.394;2024-03-07T10:00:22;27.80;;;19.70;;
45522;SDS011;31254;51.680;5.394;2024-03-07T10:03:07;32.28;;;20.50;;
45522;SDS011;31254;51.680;5.394;2024-03-07T10:05:36;31.15;;;20.17;;
45522;SDS011;31254;51.680;5.394;2024-03-07T10:08:05;32.47;;;20.75;;
45522;SDS011;31254;51.680;5.394;2024-03-07T10:10:34;28.70;;;19.45;;
45522;SDS011;31254;51.680;5.394;2024-03-07T10:13:00;30.17;;;19.77;;
45522;SDS011;31254;51.680;5.394;2024-03-07T10:15:28;29.92;;;18.23;;
45522;SDS011;31254;51.680;5.394;2024-03-07T10:17:59;31.05;;;20.42;;
45522;SDS011;31254;51.680;5.394;2024-03-07T10:20:28;28.13;;;19.65;;
45522;SDS011;31254;51.680;5.394;2024-03-07T10:22:55;29.92;;;19.50;;
45522;SDS011;31254;51.680;5.394;2024-03-07T10:25:24;30.13;;;20.10;;
45522;SDS011;31254;51.680;5.394;2024-03-07T10:27:53;30.63;;;20.38;;
45522;SDS011;31254;51.680;5.394;2024-03-07T10:30:20;30.50;;;19.88;;
45522;SDS011;31254;51.680;5.394;2024-03-07T10:32:58;25.38;;;18.85;;
45522;SDS011;31254;51.680;5.394;2024-03-07T10:35:28;28.20;;;18.38;;
45522;SDS011;31254;51.680;5.394;2024-03-07T10:37:57;27.73;;;18.48;;
45522;SDS011;31254;51.680;5.394;2024-03-07T10:40:28;30.25;;;19.83;;
45522;SDS011;31254;51.680;5.394;2024-03-07T10:42:56;27.45;;;18.98;;
45522;SDS011;31254;51.680;5.394;2024-03-07T10:45:24;27.37;;;20.00;;
45522;SDS011;31254;51.680;5.394;2024-03-07T10:47:55;26.08;;;18.25;;
45522;SDS011;31254;51.680;5.394;2024-03-07T10:50:30;25.65;;;18.48;;
45522;SDS011;31254;51.680;5.394;2024-03-07T10:59:26;26.00;;;17.92;;
45522;SDS011;31254;51.680;5.394;2024-03-07T11:01:59;24.27;;;17.42;;
45522;SDS011;31254;51.680;5.394;2024-03-07T11:04:33;25.17;;;17.70;;
45522;SDS011;31254;51.680;5.394;2024-03-07T11:07:00;24.00;;;18.00;;
45522;SDS011;31254;51.680;5.394;2024-03-07T11:09:27;24.23;;;17.85;;
45522;SDS011;31254;51.680;5.394;2024-03-07T11:11:59;25.08;;;17.67;;
45522;SDS011;31254;51.680;5.394;2024-03-07T11:14:30;24.23;;;17.15;;
45522;SDS011;31254;51.680;5.394;2024-03-07T11:16:58;23.90;;;17.33;;
45522;SDS011;31254;51.680;5.394;2024-03-07T11:19:26;26.38;;;17.90;;
45522;SDS011;31254;51.680;5.394;2024-03-07T11:21:54;26.00;;;17.38;;
45522;SDS011;31254;51.680;5.394;2024-03-07T11:24:29;25.02;;;17.63;;
45522;SDS011;31254;51.680;5.394;2024-03-07T11:26:59;24.67;;;17.73;;
45522;SDS011;31254;51.680;5.394;2024-03-07T11:32:14;24.67;;;17.25;;
45522;SDS011;31254;51.680;5.394;2024-03-07T11:34:43;24.85;;;17.10;;
45522;SDS011;31254;51.680;5.394;2024-03-07T11:37:19;25.67;;;16.65;;
45522;SDS011;31254;51.680;5.394;2024-03-07T11:40:03;27.23;;;16.00;;
45522;SDS011;31254;51.680;5.394;2024-03-07T11:42:34;24.58;;;16.38;;
45522;SDS011;31254;51.680;5.394;2024-03-07T11:45:02;23.13;;;15.85;;
45522;SDS011;31254;51.680;5.394;2024-03-07T11:47:37;24.50;;;15.85;;
45522;SDS011;31254;51.680;5.394;2024-03-07T11:50:06;25.15;;;15.45;;
45522;SDS011;31254;51.680;5.394;2024-03-07T11:52:37;23.48;;;16.05;;
45522;SDS011;31254;51.680;5.394;2024-03-07T11:55:08;22.13;;;15.95;;
45522;SDS011;31254;51.680;5.394;2024-03-07T11:57:35;23.98;;;16.92;;
45522;SDS011;31254;51.680;5.394;2024-03-07T12:00:02;24.05;;;17.80;;
45522;SDS011;31254;51.680;5.394;2024-03-07T12:02:37;24.70;;;17.25;;
45522;SDS011;31254;51.680;5.394;2024-03-07T12:05:05;26.77;;;17.52;;
45522;SDS011;31254;51.680;5.394;2024-03-07T12:07:36;25.65;;;17.55;;
45522;SDS011;31254;51.680;5.394;2024-03-07T12:10:02;26.65;;;17.80;;
45522;SDS011;31254;51.680;5.394;2024-03-07T12:12:30;28.92;;;17.73;;
45522;SDS011;31254;51.680;5.394;2024-03-07T12:14:57;28.27;;;18.50;;
45522;SDS011;31254;51.680;5.394;2024-03-07T12:17:25;27.10;;;21.13;;
45522;SDS011;31254;51.680;5.394;2024-03-07T12:19:52;25.08;;;16.80;;
45522;SDS011;31254;51.680;5.394;2024-03-07T12:22:19;28.40;;;17.83;;
45522;SDS011;31254;51.680;5.394;2024-03-07T12:25:04;27.45;;;17.30;;
45522;SDS011;31254;51.680;5.394;2024-03-07T12:27:34;26.58;;;16.88;;
45522;SDS011;31254;51.680;5.394;2024-03-07T12:30:01;27.42;;;17.15;;
45522;SDS011;31254;51.680;5.394;2024-03-07T12:32:34;25.88;;;17.02;;
45522;SDS011;31254;51.680;5.394;2024-03-07T12:35:03;25.77;;;17.35;;
45522;SDS011;31254;51.680;5.394;2024-03-07T12:37:34;24.75;;;16.90;;
45522;SDS011;31254;51.680;5.394;2024-03-07T12:40:10;25.80;;;17.10;;
45522;SDS011;31254;51.680;5.394;2024-03-07T12:42:45;24.52;;;16.75;;
45522;SDS011;31254;51.680;5.394;2024-03-07T12:45:13;26.10;;;17.33;;
45522;SDS011;31254;51.680;5.394;2024-03-07T12:47:45;24.98;;;16.60;;
45522;SDS011;31254;51.680;5.394;2024-03-07T12:50:13;24.10;;;15.40;;
45522;SDS011;31254;51.680;5.394;2024-03-07T12:52:40;23.17;;;16.27;;
45522;SDS011;31254;51.680;5.394;2024-03-07T12:55:11;23.17;;;15.38;;
45522;SDS011;31254;51.680;5.394;2024-03-07T12:57:39;21.63;;;15.55;;
45522;SDS011;31254;51.680;5.394;2024-03-07T13:00:06;25.10;;;18.02;;
45522;SDS011;31254;51.680;5.394;2024-03-07T13:02:43;28.08;;;16.52;;
45522;SDS011;31254;51.680;5.394;2024-03-07T13:05:11;23.58;;;16.00;;
45522;SDS011;31254;51.680;5.394;2024-03-07T13:07:45;24.20;;;15.93;;
45522;SDS011;31254;51.680;5.394;2024-03-07T13:10:16;23.40;;;14.60;;
45522;SDS011;31254;51.680;5.394;2024-03-07T13:12:44;24.35;;;15.30;;
45522;SDS011;31254;51.680;5.394;2024-03-07T13:15:12;24.13;;;15.57;;
45522;SDS011;31254;51.680;5.394;2024-03-07T13:17:39;19.60;;;13.93;;
45522;SDS011;31254;51.680;5.394;2024-03-07T13:20:06;22.35;;;15.27;;
45522;SDS011;31254;51.680;5.394;2024-03-07T13:22:39;21.50;;;15.00;;
45522;SDS011;31254;51.680;5.394;2024-03-07T13:25:16;22.50;;;14.80;;
45522;SDS011;31254;51.680;5.394;2024-03-07T13:30:30;21.15;;;14.32;;
45522;SDS011;31254;51.680;5.394;2024-03-07T13:32:57;22.10;;;13.63;;
45522;SDS011;31254;51.680;5.394;2024-03-07T13:35:25;24.75;;;15.30;;
45522;SDS011;31254;51.680;5.394;2024-03-07T13:37:53;22.05;;;15.18;;
45522;SDS011;31254;51.680;5.394;2024-03-07T13:40:23;23.92;;;15.98;;
45522;SDS011;31254;51.680;5.394;2024-03-07T13:42:59;21.85;;;15.30;;
45522;SDS011;31254;51.680;5.394;2024-03-07T13:45:28;23.20;;;15.85;;
45522;SDS011;31254;51.680;5.394;2024-03-07T13:48:03;22.40;;;15.20;;
45522;SDS011;31254;51.680;5.394;2024-03-07T13:50:32;23.35;;;15.73;;
45522;SDS011;31254;51.680;5.394;2024-03-07T13:53:20;24.02;;;15.93;;
45522;SDS011;31254;51.680;5.394;2024-03-07T13:58:48;23.50;;;15.18;;
45522;SDS011;31254;51.680;5.394;2024-03-07T14:04:27;21.08;;;15.15;;
45522;SDS011;31254;51.680;5.394;2024-03-07T14:27:09;22.52;;;15.98;;
45522;SDS011;31254;51.680;5.394;2024-03-07T14:32:38;22.77;;;16.33;;
45522;SDS011;31254;51.680;5.394;2024-03-07T14:35:20;25.15;;;16.80;;
45522;SDS011;31254;51.680;5.394;2024-03-07T14:38:06;24.02;;;16.20;;
45522;SDS011;31254;51.680;5.394;2024-03-07T14:40:52;26.20;;;15.77;;
45522;SDS011;31254;51.680;5.394;2024-03-07T14:43:20;32.65;;;17.13;;
45522;SDS011;31254;51.680;5.394;2024-03-07T14:45:48;24.38;;;17.23;;
45522;SDS011;31254;51.680;5.394;2024-03-07T14:48:16;27.90;;;17.13;;
45522;SDS011;31254;51.680;5.394;2024-03-07T14:50:45;25.00;;;17.52;;
45522;SDS011;31254;51.680;5.394;2024-03-07T14:53:14;23.98;;;16.27;;
45522;SDS011;31254;51.680;5.394;2024-03-07T14:55:44;23.00;;;16.42;;
45522;SDS011;31254;51.680;5.394;2024-03-07T14:58:11;23.00;;;16.20;;
45522;SDS011;31254;51.680;5.394;2024-03-07T15:00:39;24.70;;;16.23;;
45522;SDS011;31254;51.680;5.394;2024-03-07T15:03:22;24.35;;;16.90;;
45522;SDS011;31254;51.680;5.394;2024-03-07T15:05:55;24.38;;;16.33;;
45522;SDS011;31254;51.680;5.394;2024-03-07T15:08:23;25.20;;;16.70;;
45522;SDS011;31254;51.680;5.394;2024-03-07T15:13:40;22.42;;;16.38;;
45522;SDS011;31254;51.680;5.394;2024-03-07T15:16:06;22.98;;;15.98;;